Terminal Aerodrome Forecast
Issued by NWS Missoula, MT

Home | Current Version | Previous Version | Text Only | Print | Product List | Glossary On
Versions: 1 2 3 4 5 6 7 8 9 10 11 12 13 14 15 16 17 18 19 20 21 22
000
FTUS45 KMSO 210520
TAFBTM
TAF
KBTM 210520Z 2106/2206 12004KT P6SM SCT080
     FM211200 VRB03KT 6SM BR SCT015 BKN030
     FM211600 VRB05KT P6SM BKN040
     FM220400 01012KT 6SM -SN BKN020 OVC030=

USA.gov is the U.S. government's official web portal to all federal, state and local government web resources and services.